FYGA4: White River At Fayetteville, AR

                                SHEF ID:       FYGA4     White River near Fayetteville, A
STATION TYPE: Stream Gauge

PRECIP STAGE RIV-FLOW WTR-TEMP DIS-OXY PH CONDUCT BAT-LOAD
in ft cfs F mg/l su umho/cm volt
Ccp-Rev Ccp-Rev Ccp-Rev Ccp-Rev Ccp-Rev Ccp-Rev Ccp-Rev Ccp-Rev
(America/Chicago)
04/01 00:00 0.00 2.27 146 61.32 8.42 7.75 137 12.65
04/01 01:00 0.00 2.27 146 60.93 8.33 7.72 137 12.65
04/01 02:00 0.00 2.26 144 60.58 8.45 7.73 136 12.65
04/01 03:00 0.00 2.26 144 60.31 8.46 7.72 135 12.65
04/01 04:00 0.00 2.25 141 60.10 8.47 7.71 135 12.57
04/01 05:00 0.00 2.26 144 59.88 8.43 7.70 135 12.57
04/01 06:00 0.00 2.26 144 59.67 8.43 7.69 135 12.49
04/01 07:00 0.00 2.29 151 59.52 8.46 7.69 134 12.41
04/01 08:00 0.00 2.29 151 59.50 8.54 7.70 133 12.41
04/01 09:00 0.00 2.32 159 59.45 8.72 7.73 132 13.53
04/01 10:00 0.00 2.31 156 59.97 9.04 7.78 130 13.68
04/01 11:00 0.00 2.22 134 60.94 9.31 7.83 130 14.00
04/01 12:00 0.00 2.24 139 62.28 9.44 7.89 131 13.92
04/01 13:00 0.00 2.23 137 63.64 9.57 7.94 132 13.76
04/01 14:00 0.00 2.15 118 64.20 9.60 8.00 132 13.68
04/01 15:00 0.00 2.15 118 64.98 9.66 8.08 133 13.68
04/01 16:00 0.00 2.18 125 65.23 9.64 8.16 133 13.68
04/01 17:00 0.00 2.22 134 65.37 9.55 8.20 132 13.44
04/01 18:00 0.00 2.15 118 65.01 9.45 8.19 132 13.05
04/01 19:00 0.00 2.22 134 64.53 9.23 8.15 132 12.97
04/01 20:00 0.00 2.26 144 63.86 8.86 8.05 131 12.89
04/01 21:00 0.00 2.19 127 63.43 8.60 7.94 130 12.81
04/01 22:00 0.00 2.14 116 63.23 8.49 7.87 131 12.81
04/01 23:00 0.00 2.15 118 63.09 8.29 7.82 132 12.81
Data processed at Wed 02Apr2025 04:10 GMT

Parsing this webpage?

Checkout our new Data API! CWMSDataAPI (CDA)

Timeseries IDs (TSIDs)

TSIDs used from left to right in the data table
FAYE.Precip-Inc.Total.1Hour.1Hour.Ccp-Rev
FAYE.Stage.Inst.1Hour.0.Ccp-Rev
FAYE.Flow.Inst.1Hour.0.Ccp-Rev
FAYE.Temp-Water.Inst.1Hour.0.Ccp-Rev
FAYE.Conc-DO.Inst.1Hour.0.Ccp-Rev
FAYE.pH.Inst.1Hour.0.Ccp-Rev
FAYE.Cond-Water.Inst.1Hour.0.Ccp-Rev
FAYE.Volt-Battery Load.Inst.1Hour.0.Ccp-Rev

                            

All information presented herein is the property of the government of the United States of America and may be revised or deleted at any time without prior notice. Dissemination of this information without the expressed written consent of the Public Affairs Office, Tulsa District U.S. Army Corps of Engineers is strictly prohibited. These data are gathered electronically and, as presented, have NOT undergone any form of quality control. These data are NOT guaranteed to be valid or correct.